createdAt,value
2018-03-22T00:00:51.844Z,15.40
2018-03-22T00:03:19.474Z,14.40
2018-03-22T00:05:47.126Z,15.53
2018-03-22T00:08:14.754Z,16.03
2018-03-22T00:10:42.410Z,16.00
2018-03-22T00:13:10.055Z,17.07
2018-03-22T00:15:37.682Z,16.80
2018-03-22T00:18:05.309Z,17.20
2018-03-22T00:20:32.942Z,16.93
2018-03-22T00:23:00.579Z,15.93
2018-03-22T00:25:28.214Z,15.73
2018-03-22T00:27:55.849Z,16.37
2018-03-22T00:30:23.503Z,16.83
2018-03-22T00:32:51.156Z,17.40
2018-03-22T00:35:18.798Z,17.20
2018-03-22T00:37:46.421Z,17.60
2018-03-22T00:40:14.049Z,17.33
2018-03-22T00:42:41.708Z,16.43
2018-03-22T00:45:09.354Z,17.50
2018-03-22T00:47:36.986Z,16.40
2018-03-22T00:50:05.389Z,16.07
2018-03-22T00:52:33.787Z,16.90
2018-03-22T00:55:01.441Z,15.47
2018-03-22T00:57:29.808Z,16.40
2018-03-22T00:59:58.201Z,15.67
2018-03-22T01:02:25.836Z,15.53
2018-03-22T01:04:53.464Z,16.73
2018-03-22T01:07:21.096Z,15.83
2018-03-22T01:09:48.720Z,17.57
2018-03-22T01:12:16.369Z,15.77
2018-03-22T01:14:44.003Z,18.53
2018-03-22T01:17:11.625Z,17.27
2018-03-22T01:19:40.792Z,17.60
2018-03-22T01:22:08.389Z,17.80
2018-03-22T01:24:36.037Z,18.20
2018-03-22T01:27:03.691Z,17.53
2018-03-22T01:29:31.354Z,17.67
2018-03-22T01:31:58.997Z,18.23
2018-03-22T01:34:26.642Z,15.70
2018-03-22T01:36:54.304Z,18.40
2018-03-22T01:39:21.901Z,17.37
2018-03-22T01:41:49.531Z,17.87
2018-03-22T01:44:17.172Z,17.73
2018-03-22T01:46:44.805Z,19.57
2018-03-22T01:49:12.417Z,17.70
2018-03-22T01:51:40.066Z,17.67
2018-03-22T01:54:07.685Z,18.30
2018-03-22T01:56:36.093Z,18.03
2018-03-22T01:59:03.713Z,17.43
2018-03-22T02:01:31.369Z,17.80
2018-03-22T02:03:58.996Z,17.47
2018-03-22T02:06:26.618Z,17.93
2018-03-22T02:08:54.254Z,16.53
2018-03-22T02:11:21.865Z,15.00
2018-03-22T02:13:49.511Z,16.83
2018-03-22T02:16:17.128Z,16.70
2018-03-22T02:18:44.744Z,16.87
2018-03-22T02:21:13.142Z,16.17
2018-03-22T02:23:41.602Z,16.63
2018-03-22T02:26:09.221Z,15.70
2018-03-22T02:28:36.849Z,16.50
2018-03-22T02:31:05.250Z,17.23
2018-03-22T02:33:33.649Z,16.80
2018-03-22T02:36:01.273Z,18.07
2018-03-22T02:38:28.901Z,16.43
2018-03-22T02:40:56.559Z,14.07
2018-03-22T02:43:24.185Z,16.50
2018-03-22T02:45:52.098Z,14.13
2018-03-22T02:48:19.708Z,17.33
2018-03-22T02:50:53.196Z,15.57
2018-03-22T02:53:20.880Z,16.63
2018-03-22T02:55:48.474Z,15.67
2018-03-22T02:58:16.118Z,14.27
2018-03-22T03:00:44.643Z,15.87
2018-03-22T03:03:12.288Z,15.83
2018-03-22T03:05:39.940Z,17.73
2018-03-22T03:08:08.337Z,15.30
2018-03-22T03:10:35.995Z,17.43
2018-03-22T03:13:03.619Z,17.60
2018-03-22T03:15:34.592Z,17.83
2018-03-22T03:18:02.226Z,17.57
2018-03-22T03:20:29.839Z,18.37
2018-03-22T03:22:57.496Z,16.73
2018-03-22T03:25:25.124Z,18.33
2018-03-22T03:27:52.766Z,17.67
2018-03-22T03:30:20.446Z,17.93
2018-03-22T03:32:48.801Z,19.00
2018-03-22T03:35:16.425Z,18.43
2018-03-22T03:37:44.065Z,19.13
2018-03-22T03:40:11.715Z,18.87
2018-03-22T03:42:39.351Z,19.43
2018-03-22T03:45:06.975Z,17.90
2018-03-22T03:47:34.618Z,19.70
2018-03-22T03:50:02.266Z,19.87
2018-03-22T03:52:29.888Z,18.90
2018-03-22T03:54:57.508Z,18.67
2018-03-22T03:57:25.901Z,20.10
2018-03-22T03:59:53.536Z,20.37
2018-03-22T04:02:21.172Z,19.07
2018-03-22T04:04:48.802Z,20.23
2018-03-22T04:07:16.454Z,17.43
2018-03-22T04:09:44.104Z,20.10
2018-03-22T04:12:12.484Z,20.30
2018-03-22T04:14:40.129Z,18.20
2018-03-22T04:17:07.755Z,19.33
2018-03-22T04:19:35.397Z,20.33
2018-03-22T04:22:03.012Z,19.50
2018-03-22T04:24:30.650Z,19.47
2018-03-22T04:26:58.297Z,20.17
2018-03-22T04:29:25.962Z,20.23
2018-03-22T04:31:53.589Z,18.90
2018-03-22T04:34:21.260Z,19.03
2018-03-22T04:36:49.661Z,20.37
2018-03-22T04:39:17.296Z,18.43
2018-03-22T04:41:44.920Z,19.73
2018-03-22T04:44:12.605Z,18.33
2018-03-22T04:46:40.206Z,21.53
2018-03-22T04:49:07.845Z,19.83
2018-03-22T04:51:35.465Z,21.23
2018-03-22T04:54:03.096Z,22.23
2018-03-22T04:56:30.726Z,21.70
2018-03-22T04:58:58.356Z,19.80
2018-03-22T05:01:26.002Z,22.58
2018-03-22T05:03:53.612Z,21.67
2018-03-22T05:06:21.288Z,19.63
2018-03-22T05:08:48.988Z,19.73
2018-03-22T05:11:17.707Z,24.13
2018-03-22T05:13:46.097Z,23.10
2018-03-22T05:16:13.730Z,24.03
2018-03-22T05:18:41.463Z,19.27
2018-03-22T05:21:09.841Z,22.43
2018-03-22T05:23:45.513Z,16.20
2018-03-22T05:26:13.150Z,25.37
2018-03-22T05:28:40.785Z,27.90
2018-03-22T05:31:09.171Z,24.97
2018-03-22T05:33:37.578Z,24.80
2018-03-22T05:36:05.279Z,26.63
2018-03-22T05:38:33.730Z,30.70
2018-03-22T05:41:01.408Z,30.37
2018-03-22T05:43:29.095Z,30.20
2018-03-22T05:45:58.140Z,25.50
2018-03-22T05:48:26.541Z,33.40
2018-03-22T05:50:54.181Z,35.63
2018-03-22T05:53:22.573Z,35.17
2018-03-22T05:55:50.966Z,25.20
2018-03-22T05:58:18.595Z,35.00
2018-03-22T06:00:46.234Z,29.00
2018-03-22T06:03:14.294Z,33.00
2018-03-22T06:05:43.857Z,31.73
2018-03-22T06:08:11.510Z,37.17
2018-03-22T06:10:39.141Z,35.30
2018-03-22T06:13:06.770Z,38.37
2018-03-22T06:15:35.152Z,36.87
2018-03-22T06:18:03.556Z,28.87
2018-03-22T06:20:31.185Z,38.60
2018-03-22T06:22:58.812Z,34.83
2018-03-22T06:25:26.472Z,40.13
2018-03-22T06:27:54.121Z,37.87
2018-03-22T06:30:21.786Z,38.13
2018-03-22T06:32:50.243Z,34.60
2018-03-22T06:35:17.813Z,36.73
2018-03-22T06:37:46.214Z,39.07
2018-03-22T06:40:13.853Z,38.10
2018-03-22T06:42:41.510Z,39.60
2018-03-22T06:45:09.142Z,35.67
2018-03-22T06:47:36.801Z,30.97
2018-03-22T06:50:04.446Z,36.33
2018-03-22T06:52:32.109Z,36.07
2018-03-22T06:55:00.527Z,42.30
2018-03-22T06:57:28.281Z,37.30
2018-03-22T06:59:55.953Z,32.33
2018-03-22T07:02:23.665Z,35.33
2018-03-22T07:04:57.673Z,34.10
2018-03-22T07:07:25.308Z,38.13
2018-03-22T07:09:52.950Z,34.20
2018-03-22T07:12:20.573Z,29.30
2018-03-22T07:14:48.228Z,34.50
2018-03-22T07:17:19.804Z,34.90
2018-03-22T07:19:47.439Z,28.60
2018-03-22T07:22:15.078Z,34.07
2018-03-22T07:24:42.717Z,32.60
2018-03-22T07:27:11.128Z,38.53
2018-03-22T07:29:38.752Z,39.87
2018-03-22T07:32:06.454Z,32.77
2018-03-22T07:34:34.086Z,37.83
2018-03-22T07:37:01.730Z,34.67
2018-03-22T07:39:29.341Z,26.77
2018-03-22T07:41:56.964Z,36.43
2018-03-22T07:44:24.589Z,35.20
2018-03-22T07:46:52.231Z,32.70
2018-03-22T07:49:20.640Z,32.60
2018-03-22T07:51:49.004Z,30.83
2018-03-22T07:57:04.213Z,28.57
2018-03-22T07:59:31.843Z,35.13
2018-03-22T08:02:00.243Z,31.50
2018-03-22T08:04:27.887Z,29.63
2018-03-22T08:06:55.525Z,32.77
2018-03-22T08:09:23.156Z,26.67
2018-03-22T08:11:50.816Z,30.20
2018-03-22T08:14:18.456Z,31.97
2018-03-22T08:16:46.877Z,25.77
2018-03-22T08:19:14.920Z,26.40
2018-03-22T08:21:43.321Z,26.13
2018-03-22T08:24:10.964Z,25.27
2018-03-22T08:26:38.606Z,27.30
2018-03-22T08:29:06.241Z,27.53
2018-03-22T08:31:33.880Z,22.70
2018-03-22T08:34:02.258Z,19.87
2018-03-22T08:36:37.138Z,25.13
2018-03-22T08:39:04.765Z,23.10
2018-03-22T08:41:33.157Z,21.63
2018-03-22T08:44:00.785Z,21.30
2018-03-22T08:46:29.177Z,18.73
2018-03-22T08:48:57.564Z,24.60
2018-03-22T08:51:25.977Z,18.07
2018-03-22T08:53:53.598Z,19.47
2018-03-22T08:56:21.254Z,21.10
2018-03-22T08:58:48.876Z,22.37
2018-03-22T09:01:16.513Z,18.40
2018-03-22T09:03:44.924Z,22.90
2018-03-22T09:06:12.557Z,21.37
2018-03-22T09:08:40.965Z,25.43
2018-03-22T09:11:08.593Z,17.43
2018-03-22T09:13:38.205Z,24.57
2018-03-22T09:16:13.832Z,24.93
2018-03-22T09:18:41.458Z,26.03
2018-03-22T09:21:09.094Z,25.50
2018-03-22T09:23:38.721Z,24.07
2018-03-22T09:26:07.043Z,23.10
2018-03-22T09:28:47.644Z,24.13
2018-03-22T09:31:16.051Z,21.90
2018-03-22T09:33:44.448Z,20.17
2018-03-22T09:36:12.078Z,21.77
2018-03-22T09:38:39.699Z,23.07
2018-03-22T09:41:07.316Z,22.57
2018-03-22T09:43:35.705Z,25.67
2018-03-22T09:46:04.117Z,23.00
2018-03-22T09:48:31.740Z,22.73
2018-03-22T09:51:03.093Z,22.30
2018-03-22T09:53:30.737Z,19.07
2018-03-22T09:55:58.366Z,20.23
2018-03-22T09:58:25.999Z,22.30
2018-03-22T10:00:53.604Z,22.33
2018-03-22T10:03:21.251Z,21.87
2018-03-22T10:05:48.902Z,22.00
2018-03-22T10:08:17.291Z,26.37
2018-03-22T10:10:46.690Z,20.20
2018-03-22T10:13:15.088Z,17.53
2018-03-22T10:15:42.713Z,24.37
2018-03-22T10:18:10.348Z,24.20
2018-03-22T10:20:38.028Z,24.13
2018-03-22T10:23:05.653Z,21.33
2018-03-22T10:25:33.297Z,23.23
2018-03-22T10:28:00.952Z,22.53
2018-03-22T10:30:28.578Z,22.90
2018-03-22T10:32:56.210Z,20.90
2018-03-22T10:35:24.955Z,22.57
2018-03-22T10:37:52.600Z,21.93
2018-03-22T10:40:20.298Z,20.80
2018-03-22T10:42:47.988Z,18.93
2018-03-22T10:45:15.570Z,19.53
2018-03-22T10:47:43.204Z,19.33
2018-03-22T10:50:10.824Z,21.40
2018-03-22T10:52:38.453Z,23.87
2018-03-22T10:55:06.081Z,23.27
2018-03-22T10:57:33.708Z,22.20
2018-03-22T11:00:01.341Z,25.63
2018-03-22T11:02:28.965Z,25.30
2018-03-22T11:04:56.592Z,23.00
2018-03-22T11:07:27.612Z,25.43
2018-03-22T11:09:55.236Z,23.23
2018-03-22T11:15:21.386Z,23.27
2018-03-22T11:17:49.265Z,22.57
2018-03-22T11:20:19.548Z,22.77
2018-03-22T11:22:48.538Z,23.93
2018-03-22T11:25:19.620Z,24.60
2018-03-22T11:27:49.342Z,27.97
2018-03-22T11:30:19.399Z,24.07
2018-03-22T11:32:48.134Z,23.43
2018-03-22T11:35:17.097Z,27.67
2018-03-22T11:37:47.011Z,27.77
2018-03-22T11:40:17.131Z,26.60
2018-03-22T11:42:45.810Z,31.47
2018-03-22T11:45:13.470Z,28.70
2018-03-22T11:47:41.278Z,31.30
2018-03-22T11:50:09.728Z,28.13
2018-03-22T11:52:37.329Z,26.63
2018-03-22T11:55:23.884Z,29.57
2018-03-22T11:57:51.513Z,32.07
2018-03-22T12:00:19.395Z,27.27
2018-03-22T12:02:47.037Z,33.80
2018-03-22T12:05:14.658Z,31.40
2018-03-22T12:07:43.044Z,33.13
2018-03-22T12:10:11.432Z,43.10
2018-03-22T12:12:39.821Z,33.17
2018-03-22T12:15:08.213Z,26.77
2018-03-22T12:17:35.832Z,33.10
2018-03-22T12:20:03.458Z,33.07
2018-03-22T12:22:31.072Z,33.73
2018-03-22T12:24:58.692Z,32.87
2018-03-22T12:27:26.329Z,25.60
2018-03-22T12:29:54.722Z,32.30
2018-03-22T12:32:22.382Z,35.97
2018-03-22T12:34:49.956Z,29.40
2018-03-22T12:37:17.646Z,33.87
2018-03-22T12:39:45.231Z,32.53
2018-03-22T12:42:12.848Z,35.07
2018-03-22T12:44:40.481Z,35.77
2018-03-22T12:47:08.105Z,34.93
2018-03-22T12:49:35.725Z,37.60
2018-03-22T12:52:03.348Z,35.53
2018-03-22T12:54:30.968Z,33.57
2018-03-22T12:56:59.362Z,35.00
2018-03-22T12:59:32.329Z,36.57
2018-03-22T13:02:01.921Z,36.37
2018-03-22T13:04:29.540Z,35.20
2018-03-22T13:06:57.156Z,36.57
2018-03-22T13:09:24.780Z,36.20
2018-03-22T13:12:03.221Z,33.70
2018-03-22T13:14:30.845Z,35.80
2018-03-22T13:16:58.472Z,35.83
2018-03-22T13:19:26.097Z,37.40
2018-03-22T13:21:53.725Z,35.27
2018-03-22T13:24:22.112Z,37.33
2018-03-22T13:26:49.729Z,35.60
2018-03-22T13:29:17.349Z,36.43
2018-03-22T13:31:44.974Z,37.97
2018-03-22T13:34:12.597Z,37.90
2018-03-22T13:36:40.226Z,38.93
2018-03-22T13:39:07.994Z,36.30
2018-03-22T13:41:35.608Z,37.90
2018-03-22T13:44:03.230Z,39.43
2018-03-22T13:46:31.617Z,40.97
2018-03-22T13:49:10.797Z,39.10
2018-03-22T13:51:38.425Z,39.13
2018-03-22T13:54:06.052Z,36.37
2018-03-22T13:56:33.685Z,40.33
2018-03-22T13:59:01.315Z,41.07
2018-03-22T14:01:29.710Z,42.50
2018-03-22T14:03:58.093Z,42.40
2018-03-22T14:06:25.761Z,41.60
2018-03-22T14:08:53.381Z,45.20
2018-03-22T14:11:21.005Z,42.07
2018-03-22T14:16:42.572Z,42.13
2018-03-22T14:19:10.189Z,38.70
2018-03-22T14:21:37.817Z,36.83
2018-03-22T14:24:05.433Z,36.67
2018-03-22T14:26:33.096Z,33.03
2018-03-22T14:29:00.712Z,34.37
2018-03-22T14:31:28.332Z,33.97
2018-03-22T14:33:55.964Z,31.53
2018-03-22T14:36:23.597Z,28.27
2018-03-22T14:38:51.228Z,29.87
2018-03-22T14:41:18.852Z,32.33
2018-03-22T14:43:46.476Z,30.53
2018-03-22T14:46:20.506Z,31.37
2018-03-22T14:48:48.205Z,32.73
2018-03-22T14:51:15.829Z,30.77
2018-03-22T14:53:43.466Z,30.37
2018-03-22T14:56:11.080Z,31.93
2018-03-22T14:58:39.685Z,30.53
2018-03-22T15:01:07.310Z,30.83
2018-03-22T15:03:34.928Z,31.97
2018-03-22T15:06:03.337Z,33.07
2018-03-22T15:08:30.949Z,33.20
2018-03-22T15:10:58.586Z,32.97
2018-03-22T15:13:26.204Z,33.10
2018-03-22T15:15:53.846Z,30.73
2018-03-22T15:18:21.508Z,31.43
2018-03-22T15:20:49.125Z,31.80
2018-03-22T15:23:17.524Z,29.73
2018-03-22T15:25:45.153Z,30.10
2018-03-22T15:28:12.819Z,29.97
2018-03-22T15:30:40.393Z,27.60
2018-03-22T15:33:08.780Z,27.27
2018-03-22T15:35:39.197Z,25.73
2018-03-22T15:38:07.588Z,24.23
2018-03-22T15:40:35.978Z,22.93
2018-03-22T15:43:04.370Z,22.17
2018-03-22T15:45:31.995Z,22.93
2018-03-22T15:47:59.612Z,23.30
2018-03-22T15:50:28.393Z,23.70
2018-03-22T15:52:56.032Z,25.00
2018-03-22T15:55:23.666Z,24.93
2018-03-22T15:57:51.286Z,24.20
2018-03-22T16:00:19.256Z,25.90
2018-03-22T16:02:50.985Z,27.37
2018-03-22T16:05:18.604Z,25.73
2018-03-22T16:07:46.233Z,25.57
2018-03-22T16:10:13.877Z,23.97
2018-03-22T16:12:41.496Z,24.50
2018-03-22T16:15:09.119Z,23.40
2018-03-22T16:17:37.521Z,24.70
2018-03-22T16:20:05.921Z,23.07
2018-03-22T16:22:33.545Z,24.20
2018-03-22T16:25:01.164Z,24.03
2018-03-22T16:27:28.905Z,23.50
2018-03-22T16:29:57.296Z,22.27
2018-03-22T16:32:25.678Z,18.67
2018-03-22T16:34:54.066Z,19.30
2018-03-22T16:37:22.448Z,17.73
2018-03-22T16:39:50.084Z,18.27
2018-03-22T16:42:17.708Z,19.57
2018-03-22T16:44:45.320Z,19.93
2018-03-22T16:47:12.941Z,17.17
2018-03-22T16:49:40.603Z,16.50
2018-03-22T16:52:08.224Z,17.10
2018-03-22T16:54:35.849Z,18.70
2018-03-22T16:57:03.472Z,20.50
2018-03-22T16:59:31.860Z,21.40
2018-03-22T17:01:59.485Z,19.57
2018-03-22T17:04:27.105Z,17.67
2018-03-22T17:06:54.737Z,18.17
2018-03-22T17:09:22.360Z,15.97
2018-03-22T17:11:49.976Z,16.43
2018-03-22T17:14:20.289Z,16.27
2018-03-22T17:16:47.912Z,16.50
2018-03-22T17:19:15.552Z,16.37
2018-03-22T17:21:43.169Z,21.43
2018-03-22T17:24:12.838Z,22.57
2018-03-22T17:26:42.892Z,19.43
2018-03-22T17:29:11.694Z,15.30
2018-03-22T17:31:43.820Z,15.50
2018-03-22T17:34:13.376Z,15.57
2018-03-22T17:36:45.169Z,13.77
2018-03-22T17:39:15.928Z,14.00
2018-03-22T17:41:45.129Z,14.50
2018-03-22T17:44:16.036Z,13.70
2018-03-22T17:46:51.200Z,13.17
2018-03-22T17:49:22.760Z,13.47
2018-03-22T17:51:54.211Z,14.23
2018-03-22T17:54:24.141Z,14.53
2018-03-22T17:56:55.302Z,13.50
2018-03-22T17:59:23.621Z,12.97
2018-03-22T18:01:53.611Z,15.30
2018-03-22T18:04:23.758Z,13.90
2018-03-22T18:06:52.746Z,15.40
2018-03-22T18:09:22.770Z,15.77
2018-03-22T18:11:50.388Z,16.23
2018-03-22T18:14:18.009Z,18.57
2018-03-22T18:16:46.592Z,21.20
2018-03-22T18:19:14.212Z,22.13
2018-03-22T18:21:41.837Z,22.80
2018-03-22T18:24:09.461Z,21.47
2018-03-22T18:26:37.088Z,21.60
2018-03-22T18:29:05.481Z,19.53
2018-03-22T18:31:33.106Z,21.23
2018-03-22T18:34:00.729Z,18.60
2018-03-22T18:36:28.348Z,19.10
2018-03-22T18:38:56.029Z,21.30
2018-03-22T18:41:24.412Z,22.70
2018-03-22T18:43:52.805Z,23.33
2018-03-22T18:46:20.437Z,24.10
2018-03-22T18:48:48.052Z,23.43
2018-03-22T18:51:15.681Z,25.57
2018-03-22T18:53:43.305Z,24.13
2018-03-22T18:56:10.935Z,24.50
2018-03-22T18:58:39.340Z,25.10
2018-03-22T19:01:06.973Z,25.37
2018-03-22T19:03:34.569Z,25.20
2018-03-22T19:06:02.200Z,24.13
2018-03-22T19:08:29.816Z,24.20
2018-03-22T19:10:57.457Z,20.87
2018-03-22T19:13:25.072Z,20.77
2018-03-22T19:15:52.717Z,22.17
2018-03-22T19:18:32.892Z,18.70
2018-03-22T19:21:00.512Z,16.97
2018-03-22T19:23:28.137Z,14.70
2018-03-22T19:25:55.756Z,15.40
2018-03-22T19:28:23.377Z,14.20
2018-03-22T19:30:50.996Z,12.80
2018-03-22T19:33:18.616Z,13.87
2018-03-22T19:35:47.006Z,14.03
2018-03-22T19:38:15.398Z,16.17
2018-03-22T19:40:43.788Z,13.63
2018-03-22T19:43:11.417Z,13.53
2018-03-22T19:45:39.047Z,14.63
2018-03-22T19:48:06.653Z,16.27
2018-03-22T19:50:34.322Z,20.50
2018-03-22T19:53:01.944Z,19.60
2018-03-22T19:55:29.564Z,20.50
2018-03-22T19:57:57.968Z,19.70
2018-03-22T20:00:29.276Z,20.87
2018-03-22T20:02:56.900Z,30.77
2018-03-22T20:05:24.539Z,23.23
2018-03-22T20:07:52.913Z,19.53
2018-03-22T20:10:21.469Z,18.07
2018-03-22T20:12:52.637Z,16.40
2018-03-22T20:15:24.728Z,17.67
2018-03-22T20:17:53.687Z,17.33
2018-03-22T20:20:25.782Z,18.50
2018-03-22T20:22:54.572Z,17.90
2018-03-22T20:25:23.220Z,17.77
2018-03-22T20:27:54.728Z,17.10
2018-03-22T20:30:25.440Z,16.37
2018-03-22T20:32:58.224Z,17.53
2018-03-22T20:35:27.504Z,17.00
2018-03-22T20:38:01.398Z,18.80
2018-03-22T20:40:32.940Z,18.57
2018-03-22T20:43:01.820Z,18.27
2018-03-22T20:45:32.385Z,20.87
2018-03-22T20:48:00.986Z,20.33
2018-03-22T20:50:29.746Z,21.43
2018-03-22T20:52:58.744Z,22.57
2018-03-22T20:55:26.478Z,22.37
2018-03-22T20:57:56.828Z,23.63
2018-03-22T21:00:35.092Z,25.83
2018-03-22T21:03:05.044Z,29.63
2018-03-22T21:05:33.716Z,32.13
2018-03-22T21:08:01.526Z,33.70
2018-03-22T21:10:31.080Z,35.83
2018-03-22T21:13:02.707Z,41.00
2018-03-22T21:15:31.269Z,40.30
2018-03-22T21:18:01.284Z,39.33
2018-03-22T21:20:31.260Z,41.87
2018-03-22T21:23:02.684Z,40.27
2018-03-22T21:25:32.600Z,45.17
2018-03-22T21:28:00.222Z,47.53
2018-03-22T21:30:28.704Z,49.63
2018-03-22T21:33:03.427Z,51.67
2018-03-22T21:35:32.450Z,49.40
2018-03-22T21:38:01.337Z,49.03
2018-03-22T21:40:34.488Z,47.80
2018-03-22T21:43:05.142Z,50.13
2018-03-22T21:45:37.410Z,50.63
2018-03-22T21:48:13.058Z,54.57
2018-03-22T21:50:48.626Z,46.90
2018-03-22T21:53:16.314Z,52.27
2018-03-22T21:55:44.058Z,50.30
2018-03-22T21:58:11.873Z,51.33
2018-03-22T22:00:43.801Z,51.57
2018-03-22T22:03:14.077Z,53.97
2018-03-22T22:05:44.723Z,51.33
2018-03-22T22:08:13.897Z,52.40
2018-03-22T22:10:46.534Z,52.73
2018-03-22T22:13:17.311Z,51.80
2018-03-22T22:15:45.577Z,54.53
2018-03-22T22:18:13.201Z,50.97
2018-03-22T22:20:40.825Z,52.17
2018-03-22T22:26:01.372Z,51.30
2018-03-22T22:28:30.514Z,54.70
2018-03-22T22:30:58.149Z,54.30
2018-03-22T22:33:25.773Z,55.87
2018-03-22T22:35:53.703Z,52.90
2018-03-22T22:38:22.092Z,52.70
2018-03-22T22:40:49.717Z,53.73
2018-03-22T22:43:17.713Z,57.50
2018-03-22T22:45:46.109Z,57.43
2018-03-22T22:48:14.501Z,58.17
2018-03-22T22:50:42.128Z,54.87
2018-03-22T22:53:09.762Z,57.17
2018-03-22T22:55:37.402Z,56.33
2018-03-22T22:58:05.021Z,56.70
2018-03-22T23:00:32.661Z,53.57
2018-03-22T23:03:00.292Z,54.97
2018-03-22T23:05:27.912Z,55.47
2018-03-22T23:07:55.553Z,56.70
2018-03-22T23:10:23.180Z,55.43
2018-03-22T23:12:51.577Z,54.40
2018-03-22T23:15:19.205Z,56.33
2018-03-22T23:17:46.828Z,53.63
2018-03-22T23:20:14.474Z,51.70
2018-03-22T23:22:42.933Z,50.73
2018-03-22T23:25:10.562Z,52.63
2018-03-22T23:27:38.181Z,53.33
2018-03-22T23:30:06.573Z,56.63
2018-03-22T23:32:34.206Z,57.43
2018-03-22T23:35:01.857Z,53.10
2018-03-22T23:37:29.486Z,54.30
2018-03-22T23:39:57.115Z,54.27
2018-03-22T23:42:24.740Z,48.83
2018-03-22T23:44:52.378Z,50.83
2018-03-22T23:47:20.001Z,53.03
2018-03-22T23:49:49.613Z,49.17
2018-03-22T23:52:17.253Z,48.90
2018-03-22T23:54:44.882Z,49.47
2018-03-22T23:57:12.505Z,48.57
2018-03-22T23:59:40.138Z,47.07
